Stations météo

Publicité
Schmücke, Allemagne (10552): Température de l'air & dewpoint: 18.10.2018 00:00:00 - 24.10.2018 00:00:00 (CEST)Schmücke, Allemagne (10552): Température de l'air 5cm & Température de l'air -5cm: 18.10.2018 00:00:00 - 24.10.2018 00:00:00 (CEST)Schmücke, Allemagne (10552): Température de l'air -20cm & Température de l'air -100cm: 18.10.2018 00:00:00 - 24.10.2018 00:00:00 (CEST)Schmücke, Allemagne (10552): Vitesse du vent & gusts: 18.10.2018 00:00:00 - 24.10.2018 00:00:00 (CEST)Schmücke, Allemagne (10552): Direction du vent: 18.10.2018 00:00:00 - 24.10.2018 00:00:00 (CEST)Schmücke, Allemagne (10552): visibility: 18.10.2018 00:00:00 - 24.10.2018 00:00:00 (CEST)Schmücke, Allemagne (10552): Ensoleillement: 18.10.2018 00:00:00 - 24.10.2018 00:00:00 (CEST)Schmücke, Allemagne (10552): Quantités de précipitations: 18.10.2018 00:00:00 - 24.10.2018 00:00:00 (CEST)
Date & Time tt [°C] td [°C] tt 5cm [°C] tt -5cm [°C] tt -20cm [°C] tt -100cm [°C] ff [km/h] ff [knt] fx [km/h] fx [knt] dd vv [km] sd [min] rr [mm]
24.10.2018 00:00:00 5,9 5,6 5,8 5,4 6,1 11,1 33 18 66 36 W 0,3 0 0,8
23.10.2018 23:00:00 5,7 5,4 5,7 5,2 6,1 11,2 30 16 55 30 W 0,5 0 1,4
23.10.2018 22:00:00 5,4 5,1 5,4 4,9 6,0 11,2 32 18 56 31 W 0,5 0 1,5
23.10.2018 21:00:00 4,7 4,4 4,7 4,6 6,0 11,2 32 17 51 27 WSW 0,2 0 1,6
23.10.2018 20:00:00 4,0 3,7 4,0 4,4 6,0 11,2 24 13 51 28 WSW 0,1 0 1,7
23.10.2018 19:00:00 3,7 3,4 3,8 4,4 6,0 11,2 34 18 56 30 WSW 0,1 0 1,0
23.10.2018 18:00:00 3,5 3,2 3,6 4,3 6,0 11,2 35 19 56 30 WSW 0,1 0 0,5
23.10.2018 17:00:00 3,2 2,9 3,5 4,3 5,9 11,2 33 18 56 30 WSW 0,2 0 0,2
23.10.2018 16:00:00 2,9 2,6 3,1 4,3 5,9 11,2 39 21 67 36 WSW 0,1 0 0,0
23.10.2018 15:00:00 2,9 2,6 3,3 4,1 5,8 11,3 36 19 66 36 WSW 0,1 0 0,0
23.10.2018 14:00:00 2,5 2,1 2,8 3,8 5,8 11,3 40 22 67 36 WSW 0,1 0 0,1
23.10.2018 13:00:00 2,0 1,7 2,2 3,5 5,9 11,3 40 22 63 34 WSW 0,1 0 0,0
23.10.2018 12:00:00 1,4 1,1 1,7 3,4 5,9 11,3 36 19 57 31 SW 0,1 0 0,0
23.10.2018 11:00:00 1,3 0,9 1,6 3,3 5,9 11,3 39 21 59 32 WSW 0,1 0 0,0
23.10.2018 10:00:00 1,1 0,7 1,4 3,2 5,9 11,3 41 22 61 33 WSW 0,1 0 0,0
23.10.2018 09:00:00 1,1 0,7 1,3 3,1 6,0 11,3 38 20 56 30 WSW 0,2 0 0,0
23.10.2018 08:00:00 1,2 0,8 1,3 3,0 6,1 11,3 36 20 54 29 WSW 0,3 0 0,0
23.10.2018 07:00:00 1,2 0,8 1,2 3,0 6,2 11,4 32 18 50 27 WSW 0,3 0 0,0
23.10.2018 06:00:00 1,2 0,8 1,3 2,9 6,3 11,4 31 17 46 25 SW 0,1 0 0,0
23.10.2018 05:00:00 1,0 0,6 1,0 2,8 6,4 11,4 26 14 42 23 SW 0,2 0 0,0
23.10.2018 04:00:00 1,4 1,0 0,8 2,3 6,7 11,4 19 10 31 17 WSW 0,1 0 0,0
23.10.2018 03:00:00 1,4 0,8 0,0 2,4 7,0 11,4 16 9 24 13 W 7 0 0,0
23.10.2018 02:00:00 0,9 -0,2 -0,2 2,9 7,2 11,4 10 6 19 10 W 22 0 0,0
23.10.2018 01:00:00 1,2 0,0 -0,4 3,5 7,4 11,4 7 4 13 7 NW 21 0 0,0
23.10.2018 00:00:00 2,2 1,4 0,9 4,4 7,6 11,4 7 4 16 8 NW 8 0 0,0
22.10.2018 23:00:00 3,1 2,2 2,0 5,3 7,7 11,4 8 4 29 15 NNW 12 0 0,0
22.10.2018 22:00:00 4,1 3,5 4,1 5,5 7,8 11,4 10 6 24 13 NNW 4,6 0 0,0
22.10.2018 21:00:00 3,6 3,1 3,6 5,4 7,9 11,5 5 3 18 10 N 9 0 0,0
22.10.2018 20:00:00 3,3 2,6 2,5 5,8 8,0 11,5 9 5 25 13 NNE 11 0 0,0
22.10.2018 19:00:00 3,6 3,2 3,7 6,2 8,1 11,5 15 8 32 17 NNE 0,3 0 0,8
22.10.2018 18:00:00 3,6 3,2 3,8 6,6 8,1 11,5 14 8 37 20 NNE 0,3 0 0,4
22.10.2018 17:00:00 4,5 4,1 4,7 7,1 8,0 11,5 10 5 32 17 NNE 0,2 0 0,4
22.10.2018 16:00:00 5,1 4,7 5,4 7,5 7,9 11,5 13 7 31 17 NNE 0,1 0 0,3
22.10.2018 15:00:00 5,7 5,0 5,9 7,9 7,7 11,5 14 7 27 14 N 3,2 0 0,1
22.10.2018 14:00:00 7,1 5,9 6,9 8,0 7,5 11,5 10 6 22 12 NNW 3,4 0 0,1
22.10.2018 13:00:00 7,4 6,0 7,4 7,7 7,3 11,5 8 5 19 10 NNW 25 0 0,0
22.10.2018 12:00:00 7,7 5,4 8,2 7,2 7,0 11,5 7 4 20 11 NW 31 0 0,0
22.10.2018 11:00:00 8,7 4,0 9,6 5,6 6,9 11,5 8 4 22 12 WNW 36 58 0,0
22.10.2018 10:00:00 6,3 3,1 6,3 4,4 7,0 11,6 8 5 18 10 WNW 31 19 0,0
22.10.2018 09:00:00 5,3 2,6 4,9 3,5 7,1 11,6 7 4 16 9 W 39 37 0,0
22.10.2018 08:00:00 4,0 1,4 1,4 3,3 7,3 11,6 9 5 16 9 WNW 36 0 0,0
22.10.2018 07:00:00 4,4 0,8 2,5 3,5 7,5 11,6 12 6 19 11 W 34 0 0,0
22.10.2018 06:00:00 4,6 0,8 2,9 3,7 7,6 11,6 12 6 24 13 WSW 34 0 0,0
22.10.2018 05:00:00 4,3 0,8 2,4 3,8 7,8 11,6 15 8 22 12 WSW 31 0 0,0
22.10.2018 04:00:00 4,4 0,9 2,7 4,0 8,1 11,6 14 7 19 10 WSW 35 0 0,0
22.10.2018 03:00:00 4,3 1,1 2,5 4,3 8,3 11,6 13 7 18 10 SW 39 0 0,0
22.10.2018 02:00:00 4,2 1,4 2,1 4,6 8,5 11,6 13 7 19 11 SW 41 0 0,0
22.10.2018 01:00:00 3,8 1,5 1,7 4,8 8,8 11,6 13 7 17 9 SW 39 0 0,0
22.10.2018 00:00:00 4,1 1,9 2,1 5,2 9,1 11,6 12 7 19 10 SW 37 0 0,0
21.10.2018 23:00:00 4,3 2,4 1,9 5,7 9,4 11,6 12 7 16 9 SW 27 0 0,0
21.10.2018 22:00:00 4,1 2,5 1,6 6,2 9,6 11,7 8 4 12 6 SW 27 0 0,0
21.10.2018 21:00:00 4,3 2,6 1,9 6,9 9,9 11,7 5 3 9 5 WSW 31 0 0,0
21.10.2018 20:00:00 4,9 2,6 2,2 7,7 10,1 11,7 6 4 12 6 S 41 0 0,0
21.10.2018 19:00:00 5,1 2,6 2,6 9,0 10,2 11,7 7 4 9 5 ESE 45 0 0,0
21.10.2018 18:00:00 7,0 3,2 6,0 10,3 10,1 11,7 6 4 10 5 ENE 51 30 0,0
21.10.2018 17:00:00 8,9 3,2 8,5 11,8 9,8 11,7 5 3 12 7 NE 43 60 0,0
21.10.2018 16:00:00 9,4 2,9 11,5 12,5 9,4 11,7 6 3 15 8 ENE 49 60 0,0
21.10.2018 15:00:00 9,2 2,3 12,3 11,9 9,0 11,7 6 4 15 8 NE 43 55 0,0
21.10.2018 14:00:00 7,9 2,3 8,9 10,9 8,7 11,7 6 3 16 8 N 45 41 0,0
21.10.2018 13:00:00 7,8 3,3 10,8 8,9 8,5 11,7 4 2 14 8 NNE 30 13 0,0
21.10.2018 12:00:00 6,7 4,3 8,4 8,4 8,3 11,7 8 4 14 8 E 10 3 0,0
21.10.2018 11:00:00 5,8 4,8 6,9 7,5 8,2 11,7 7 4 14 8 ENE 7 0 0,0
21.10.2018 10:00:00 5,3 4,9 6,0 6,7 8,2 11,7 4 2 10 5 NE 1,7 0 0,0
21.10.2018 09:00:00 4,9 4,5 5,1 6,3 8,2 11,7 4 2 13 7 NNE 0,3 0 0,0
21.10.2018 08:00:00 4,9 4,5 4,9 6,0 8,2 11,7 4 2 14 8 NNE 0,2 0 0,0
21.10.2018 07:00:00 5,0 4,5 4,9 5,8 8,2 11,8 5 3 11 6 NNE 2,0 0 0,0
21.10.2018 06:00:00 4,8 4,2 4,7 5,6 8,3 11,8 4 2 15 8 N 4,1 0 0,0
21.10.2018 05:00:00 4,3 3,5 4,2 5,2 8,4 11,8 8 4 16 9 N 12 0 0,0
21.10.2018 04:00:00 3,7 2,9 3,2 4,6 8,6 11,8 9 5 21 11 N 12 0 0,0
21.10.2018 03:00:00 3,4 2,5 2,6 4,6 8,9 11,8 9 5 17 9 N 13 0 0,0
21.10.2018 02:00:00 3,4 2,4 2,3 4,8 9,1 11,8 8 4 18 10 N 15 0 0,0
21.10.2018 01:00:00 3,1 1,8 1,2 5,1 9,4 11,8 8 4 17 9 NNE 22 0 0,0
21.10.2018 00:00:00 3,4 1,9 2,1 5,6 9,7 11,8 8 4 22 12 NNE 21 0 0,0
20.10.2018 23:00:00 3,6 2,1 2,4 6,0 10,1 11,8 10 5 18 10 NNE 25 0 0,0
20.10.2018 22:00:00 3,7 2,1 2,5 6,6 10,4 11,8 11 6 21 11 NNE 24 0 0,0
20.10.2018 21:00:00 4,1 2,2 3,0 7,2 10,7 11,8 9 5 19 11 N 23 0 0,0
20.10.2018 20:00:00 4,5 2,2 3,0 8,1 10,9 11,8 10 5 22 12 NNE 27 0 0,0
20.10.2018 19:00:00 5,2 2,8 3,8 9,4 11,1 11,8 9 5 18 10 NNE 24 0 0,0
20.10.2018 18:00:00 6,7 3,0 5,0 11,0 11,0 11,8 7 4 18 10 N 35 41 0,0
20.10.2018 17:00:00 8,6 3,9 8,9 12,5 10,8 11,8 11 6 18 10 N 33 54 0,0
20.10.2018 16:00:00 8,9 4,5 8,8 13,8 10,3 11,8 9 5 22 12 N 32 36 0,0
20.10.2018 15:00:00 10,6 4,2 13,5 13,8 9,8 11,8 5 3 22 12 W 50 60 0,0
20.10.2018 14:00:00 9,7 2,4 11,9 12,3 9,4 11,8 6 4 18 10 NW 29 60 0,0
20.10.2018 13:00:00 8,7 3,9 11,5 10,4 9,1 11,8 7 4 17 9 WNW 24 59 0,0
20.10.2018 12:00:00 6,0 4,4 6,2 8,4 9,0 11,8 8 4 17 9 N 10 6 0,0
20.10.2018 11:00:00 5,5 4,8 6,0 7,1 9,0 11,9 8 4 24 13 NNE 0,4 20 0,0
20.10.2018 10:00:00 6,1 4,6 6,1 5,9 9,2 11,9 9 5 20 11 NNE 17 59 0,0
20.10.2018 09:00:00 4,9 4,3 3,6 5,7 9,4 11,9 8 4 16 9 NNE 7 47 0,0
20.10.2018 08:00:00 4,4 3,7 2,5 6,2 9,6 11,9 7 4 19 10 NNE 5 0 0,0
20.10.2018 07:00:00 5,0 4,1 3,3 6,9 9,8 11,9 9 5 18 10 NNE 3,1 0 0,0
20.10.2018 06:00:00 6,0 5,4 5,8 7,3 9,9 11,9 9 5 16 9 N 1,8 0 0,0
20.10.2018 05:00:00 6,2 5,4 5,0 7,5 10,1 11,9 8 4 12 7 N 3,0 0 0,0
20.10.2018 04:00:00 6,6 5,5 4,3 7,9 10,2 11,9 4 2 11 6 NNW 6 0 0,0
20.10.2018 03:00:00 7,2 6,3 5,7 8,0 10,4 11,9 8 4 12 7 W 8 0 0,0
20.10.2018 02:00:00 7,1 6,0 6,0 8,1 10,5 11,9 8 5 13 7 W 7 0 0,0
20.10.2018 01:00:00 7,5 6,2 6,1 8,8 10,6 11,9 8 4 11 6 W 8 0 0,0
20.10.2018 00:00:00 7,7 6,2 6,5 9,1 10,7 11,9 5 3 8 4 WSW 12 0 0,0
19.10.2018 23:00:00 7,8 6,4 7,6 9,2 10,8 11,9 4 2 7 4 SW 15 0 0,0
19.10.2018 22:00:00 7,6 6,3 7,6 9,3 10,9 11,9 0 0 6 3 N 16 0 0,0
19.10.2018 21:00:00 7,4 6,3 7,4 9,4 11,0 11,9 3 2 6 4 WNW 14 0 0,0
19.10.2018 20:00:00 7,1 6,1 6,9 9,6 11,2 11,9 6 4 13 7 E 8 0 0,0
19.10.2018 19:00:00 7,2 5,8 7,0 10,1 11,2 11,9 9 5 14 8 NE 15 0 0,0
19.10.2018 18:00:00 7,8 6,0 7,7 11,0 11,2 11,9 9 5 13 7 NE 21 0 0,0
19.10.2018 17:00:00 8,5 6,0 8,7 11,7 11,1 11,9 6 4 15 8 ENE 28 0 0,0
19.10.2018 16:00:00 8,7 6,3 9,7 11,9 10,9 11,9 9 5 16 9 NE 25 0 0,0
19.10.2018 15:00:00 8,5 6,8 9,3 11,7 10,8 11,9 11 6 18 10 ENE 15 1 0,0
19.10.2018 14:00:00 8,2 7,0 9,4 11,3 10,6 11,9 12 6 21 11 ENE 10 0 0,0
19.10.2018 13:00:00 7,7 6,7 8,9 10,4 10,6 11,9 11 6 22 12 ENE 13 0 0,0
19.10.2018 12:00:00 7,2 6,8 8,1 9,7 10,5 11,9 14 8 23 12 ENE 4,9 0 0,0
19.10.2018 11:00:00 7,1 6,7 7,5 9,6 10,5 11,9 12 6 23 13 ENE 0,2 0 0,0
19.10.2018 10:00:00 7,2 6,9 7,5 9,3 10,6 11,9 14 8 23 12 ENE 0,2 0 0,0
19.10.2018 09:00:00 7,4 7,1 7,6 9,1 10,7 11,9 13 7 19 11 ENE 0,1 0 0,0
19.10.2018 08:00:00 7,4 7,1 7,5 9,0 10,7 11,9 13 7 21 12 ENE 0,1 0 0,0
19.10.2018 07:00:00 7,4 7,1 7,5 9,1 10,8 11,9 15 8 23 13 ENE 0,1 0 0,0
19.10.2018 06:00:00 7,5 7,2 7,6 9,1 10,9 11,9 14 7 28 15 NE 0,1 0 0,0
19.10.2018 05:00:00 7,3 7,0 7,4 9,2 11,0 11,9 16 9 31 17 ENE 0,1 0 0,0
19.10.2018 04:00:00 7,4 7,1 7,5 9,4 11,1 11,9 17 9 30 16 ENE 0,2 0 0,0
19.10.2018 03:00:00 7,6 7,3 7,7 9,5 11,3 11,9 18 10 29 16 ENE 0,1 0 0,1
19.10.2018 02:00:00 7,7 7,4 7,8 9,7 11,4 11,9 16 9 31 17 NE 0,1 0 0,0
19.10.2018 01:00:00 7,8 7,5 7,9 9,9 11,5 11,9 16 8 25 14 NE 0,1 0 0,0
19.10.2018 00:00:00 7,9 7,6 8,0 10,1 11,6 11,9 14 7 25 13 NE 0,1 0 0,1
18.10.2018 23:00:00 8,0 7,6 8,1 10,3 11,7 11,9 15 8 27 14 NE 0,1 0 0,0
18.10.2018 22:00:00 7,9 7,4 8,0 10,6 11,9 11,9 13 7 26 14 NNE 1,4 0 0,0
18.10.2018 21:00:00 8,4 7,5 8,5 11,0 12,0 11,9 11 6 24 13 NNE 5 0 0,0
18.10.2018 20:00:00 9,0 8,3 9,1 11,4 12,0 11,9 10 5 22 12 NNE 2,9 0 0,0
18.10.2018 19:00:00 9,4 8,6 9,5 11,8 12,1 11,9 11 6 24 13 NNE 2,5 0 0,0
18.10.2018 18:00:00 10,0 9,3 10,2 12,3 12,1 12,0 9 5 24 13 NNE 1,7 0 0,1
18.10.2018 17:00:00 10,1 9,2 10,5 12,9 12,0 12,0 10 6 24 13 NNE 2,3 0 0,0
18.10.2018 16:00:00 10,4 9,6 11,2 13,3 11,8 12,0 8 4 24 13 NNE 1,9 0 0,0
18.10.2018 15:00:00 10,8 9,6 11,7 13,8 11,5 12,0 11 6 22 12 NNE 1,7 0 0,0
18.10.2018 14:00:00 11,9 9,7 13,1 14,3 11,1 12,0 11 6 25 13 NNE 6 21 0,0
18.10.2018 13:00:00 11,9 9,7 14,0 13,5 10,8 12,0 11 6 24 13 NNE 5 29 0,0
18.10.2018 12:00:00 10,6 9,7 11,1 11,5 10,6 12,0 11 6 24 13 NE 0,9 0 0,0
18.10.2018 11:00:00 10,9 9,8 11,5 10,8 10,4 12,0 11 6 24 13 NE 3,0 5 0,0
18.10.2018 10:00:00 10,6 9,7 10,7 9,7 10,4 12,0 13 7 24 13 NE 3,0 0 0,0
18.10.2018 09:00:00 10,1 9,3 9,7 8,8 10,5 12,0 13 7 22 12 NNE 2,2 0 0,0
18.10.2018 08:00:00 10,0 9,1 8,8 8,3 10,6 12,0 12 7 23 12 NNE 3,2 0 0,0
18.10.2018 07:00:00 9,9 8,9 8,5 8,3 10,7 12,0 11 6 20 11 NNE 2,8 0 0,0
18.10.2018 06:00:00 10,0 8,7 8,3 8,3 10,9 12,0 11 6 18 10 NNE 4,2 0 0,0
18.10.2018 05:00:00 10,5 8,9 8,3 8,4 11,0 12,0 11 6 16 9 NNE 6 0 0,0
18.10.2018 04:00:00 10,6 8,4 7,7 8,6 11,2 12,0 9 5 13 7 NNE 17 0 0,0
18.10.2018 03:00:00 10,4 8,0 7,7 8,8 11,4 12,0 10 5 13 7 NNE 31 0 0,0
18.10.2018 02:00:00 10,2 8,4 8,0 9,0 11,6 12,0 10 5 13 7 NE 10 0 0,0
18.10.2018 01:00:00 10,3 8,9 8,2 9,3 11,8 12,0 10 5 13 7 NE 8 0 0,0
18.10.2018 00:00:00 10,3 8,9 8,0 9,6 12,1 12,0 9 5 14 7 NE 8 0 0,0

tt = Température de l'air
td = dewpoint
tt 5cm = Température de l'air 5cm
tt -5cm = Température de l'air -5cm
tt -20cm = Température de l'air -20cm
tt -100cm = Température de l'air -100cm
ff = Vitesse du vent
fx = gusts
dd = Direction du vent
vv = visibility
sd = Ensoleillement
rr = Quantités de précipitations

stations d'obs. à proximité